sensor_id;sensor_type;location;lat;lon;timestamp;P1;durP1;ratioP1;P2;durP2;ratioP2
3133;SDS011;1577;49.912;10.924;2023-01-15T00:00:49;57.63;;;14.73;;
3133;SDS011;1577;49.912;10.924;2023-01-15T00:03:15;56.10;;;13.20;;
3133;SDS011;1577;49.912;10.924;2023-01-15T00:05:41;58.47;;;12.70;;
3133;SDS011;1577;49.912;10.924;2023-01-15T00:08:07;55.90;;;12.30;;
3133;SDS011;1577;49.912;10.924;2023-01-15T00:10:33;55.87;;;10.03;;
3133;SDS011;1577;49.912;10.924;2023-01-15T00:12:59;56.20;;;10.40;;
3133;SDS011;1577;49.912;10.924;2023-01-15T00:15:25;56.43;;;12.67;;
3133;SDS011;1577;49.912;10.924;2023-01-15T00:17:51;57.10;;;13.57;;
3133;SDS011;1577;49.912;10.924;2023-01-15T00:20:17;57.50;;;15.40;;
3133;SDS011;1577;49.912;10.924;2023-01-15T00:22:43;56.47;;;11.13;;
3133;SDS011;1577;49.912;10.924;2023-01-15T00:25:10;57.07;;;13.57;;
3133;SDS011;1577;49.912;10.924;2023-01-15T00:27:54;57.83;;;15.10;;
3133;SDS011;1577;49.912;10.924;2023-01-15T00:30:20;57.37;;;17.50;;
3133;SDS011;1577;49.912;10.924;2023-01-15T00:32:48;56.10;;;17.17;;
3133;SDS011;1577;49.912;10.924;2023-01-15T00:35:15;55.93;;;18.27;;
3133;SDS011;1577;49.912;10.924;2023-01-15T00:37:41;56.87;;;21.57;;
3133;SDS011;1577;49.912;10.924;2023-01-15T00:40:07;56.50;;;19.37;;
3133;SDS011;1577;49.912;10.924;2023-01-15T00:42:33;58.93;;;17.63;;
3133;SDS011;1577;49.912;10.924;2023-01-15T00:44:59;57.47;;;23.13;;
3133;SDS011;1577;49.912;10.924;2023-01-15T00:47:33;55.40;;;15.37;;
3133;SDS011;1577;49.912;10.924;2023-01-15T00:49:59;55.60;;;19.13;;
3133;SDS011;1577;49.912;10.924;2023-01-15T00:52:25;55.93;;;20.13;;
3133;SDS011;1577;49.912;10.924;2023-01-15T00:54:51;56.17;;;22.77;;
3133;SDS011;1577;49.912;10.924;2023-01-15T00:57:18;57.07;;;24.67;;
3133;SDS011;1577;49.912;10.924;2023-01-15T00:59:44;56.50;;;22.17;;
3133;SDS011;1577;49.912;10.924;2023-01-15T01:02:10;59.20;;;31.73;;
3133;SDS011;1577;49.912;10.924;2023-01-15T01:04:36;62.37;;;35.87;;
3133;SDS011;1577;49.912;10.924;2023-01-15T01:07:02;65.77;;;49.17;;
3133;SDS011;1577;49.912;10.924;2023-01-15T01:09:28;64.57;;;39.23;;
3133;SDS011;1577;49.912;10.924;2023-01-15T01:11:54;62.27;;;38.40;;
3133;SDS011;1577;49.912;10.924;2023-01-15T01:14:20;63.37;;;33.47;;
3133;SDS011;1577;49.912;10.924;2023-01-15T01:16:46;60.03;;;36.77;;
3133;SDS011;1577;49.912;10.924;2023-01-15T01:19:13;59.30;;;33.47;;
3133;SDS011;1577;49.912;10.924;2023-01-15T01:21:40;58.67;;;30.80;;
3133;SDS011;1577;49.912;10.924;2023-01-15T01:24:07;58.07;;;28.63;;
3133;SDS011;1577;49.912;10.924;2023-01-15T01:26:35;58.97;;;32.20;;
3133;SDS011;1577;49.912;10.924;2023-01-15T01:29:01;60.20;;;36.70;;
3133;SDS011;1577;49.912;10.924;2023-01-15T01:31:27;58.97;;;34.37;;
3133;SDS011;1577;49.912;10.924;2023-01-15T01:33:54;59.40;;;35.37;;
3133;SDS011;1577;49.912;10.924;2023-01-15T01:36:24;63.20;;;38.40;;
3133;SDS011;1577;49.912;10.924;2023-01-15T01:38:50;56.33;;;28.17;;
3133;SDS011;1577;49.912;10.924;2023-01-15T01:41:16;56.37;;;23.63;;
3133;SDS011;1577;49.912;10.924;2023-01-15T01:46:35;53.80;;;24.17;;
3133;SDS011;1577;49.912;10.924;2023-01-15T01:49:10;56.03;;;27.53;;
3133;SDS011;1577;49.912;10.924;2023-01-15T01:51:42;55.73;;;28.37;;
3133;SDS011;1577;49.912;10.924;2023-01-15T01:54:10;54.73;;;26.17;;
3133;SDS011;1577;49.912;10.924;2023-01-15T01:56:37;52.57;;;22.37;;
3133;SDS011;1577;49.912;10.924;2023-01-15T01:59:03;55.93;;;30.40;;
3133;SDS011;1577;49.912;10.924;2023-01-15T02:01:31;55.50;;;28.90;;
3133;SDS011;1577;49.912;10.924;2023-01-15T02:03:57;56.30;;;26.03;;
3133;SDS011;1577;49.912;10.924;2023-01-15T02:06:23;56.07;;;26.73;;
3133;SDS011;1577;49.912;10.924;2023-01-15T02:08:50;53.57;;;22.10;;
3133;SDS011;1577;49.912;10.924;2023-01-15T02:11:18;55.27;;;25.20;;
3133;SDS011;1577;49.912;10.924;2023-01-15T02:19:12;52.83;;;21.27;;
3133;SDS011;1577;49.912;10.924;2023-01-15T02:21:45;52.93;;;20.30;;
3133;SDS011;1577;49.912;10.924;2023-01-15T02:32:11;53.57;;;24.57;;
3133;SDS011;1577;49.912;10.924;2023-01-15T02:34:39;55.83;;;25.93;;
3133;SDS011;1577;49.912;10.924;2023-01-15T02:37:09;52.97;;;22.10;;
3133;SDS011;1577;49.912;10.924;2023-01-15T02:39:39;53.50;;;23.97;;
3133;SDS011;1577;49.912;10.924;2023-01-15T02:42:07;53.10;;;24.03;;
3133;SDS011;1577;49.912;10.924;2023-01-15T02:44:34;53.33;;;25.33;;
3133;SDS011;1577;49.912;10.924;2023-01-15T02:47:02;54.53;;;28.00;;
3133;SDS011;1577;49.912;10.924;2023-01-15T02:49:29;58.73;;;33.47;;
3133;SDS011;1577;49.912;10.924;2023-01-15T02:54:23;55.40;;;34.00;;
3133;SDS011;1577;49.912;10.924;2023-01-15T02:56:51;53.30;;;28.77;;
3133;SDS011;1577;49.912;10.924;2023-01-15T02:59:19;53.33;;;26.93;;
3133;SDS011;1577;49.912;10.924;2023-01-15T03:01:49;57.07;;;37.90;;
3133;SDS011;1577;49.912;10.924;2023-01-15T03:04:30;53.23;;;29.17;;
3133;SDS011;1577;49.912;10.924;2023-01-15T03:07:31;52.40;;;26.53;;
3133;SDS011;1577;49.912;10.924;2023-01-15T03:09:49;52.70;;;27.43;;
3133;SDS011;1577;49.912;10.924;2023-01-15T03:14:51;51.63;;;27.37;;
3133;SDS011;1577;49.912;10.924;2023-01-15T03:17:22;50.30;;;24.43;;
3133;SDS011;1577;49.912;10.924;2023-01-15T03:19:49;51.33;;;26.83;;
3133;SDS011;1577;49.912;10.924;2023-01-15T03:22:24;51.00;;;25.73;;
3133;SDS011;1577;49.912;10.924;2023-01-15T03:24:53;52.47;;;30.63;;
3133;SDS011;1577;49.912;10.924;2023-01-15T03:27:19;50.57;;;25.17;;
3133;SDS011;1577;49.912;10.924;2023-01-15T03:29:47;49.47;;;21.80;;
3133;SDS011;1577;49.912;10.924;2023-01-15T03:32:14;51.53;;;29.17;;
3133;SDS011;1577;49.912;10.924;2023-01-15T03:35:02;54.07;;;35.47;;
3133;SDS011;1577;49.912;10.924;2023-01-15T03:37:28;51.83;;;30.33;;
3133;SDS011;1577;49.912;10.924;2023-01-15T03:39:54;51.27;;;29.63;;
3133;SDS011;1577;49.912;10.924;2023-01-15T03:42:28;53.17;;;33.23;;
3133;SDS011;1577;49.912;10.924;2023-01-15T03:50:12;53.20;;;35.63;;
3133;SDS011;1577;49.912;10.924;2023-01-15T03:52:45;55.57;;;34.70;;
3133;SDS011;1577;49.912;10.924;2023-01-15T03:55:20;50.80;;;29.60;;
3133;SDS011;1577;49.912;10.924;2023-01-15T03:57:51;53.07;;;32.93;;
3133;SDS011;1577;49.912;10.924;2023-01-15T04:00:25;54.00;;;34.53;;
3133;SDS011;1577;49.912;10.924;2023-01-15T04:02:52;54.63;;;32.97;;
3133;SDS011;1577;49.912;10.924;2023-01-15T04:05:18;53.90;;;34.63;;
3133;SDS011;1577;49.912;10.924;2023-01-15T04:07:45;54.70;;;41.07;;
3133;SDS011;1577;49.912;10.924;2023-01-15T04:10:11;55.17;;;42.17;;
3133;SDS011;1577;49.912;10.924;2023-01-15T04:12:37;52.67;;;34.30;;
3133;SDS011;1577;49.912;10.924;2023-01-15T04:15:03;50.30;;;27.27;;
3133;SDS011;1577;49.912;10.924;2023-01-15T04:17:29;52.10;;;35.70;;
3133;SDS011;1577;49.912;10.924;2023-01-15T04:19:55;52.50;;;32.53;;
3133;SDS011;1577;49.912;10.924;2023-01-15T04:22:21;51.97;;;34.23;;
3133;SDS011;1577;49.912;10.924;2023-01-15T04:24:47;51.47;;;30.57;;
3133;SDS011;1577;49.912;10.924;2023-01-15T04:27:13;51.90;;;32.07;;
3133;SDS011;1577;49.912;10.924;2023-01-15T04:29:39;51.57;;;32.00;;
3133;SDS011;1577;49.912;10.924;2023-01-15T04:32:05;54.37;;;36.07;;
3133;SDS011;1577;49.912;10.924;2023-01-15T04:34:32;50.57;;;31.07;;
3133;SDS011;1577;49.912;10.924;2023-01-15T04:36:59;50.83;;;32.87;;
3133;SDS011;1577;49.912;10.924;2023-01-15T04:39:25;51.60;;;34.17;;
3133;SDS011;1577;49.912;10.924;2023-01-15T04:41:51;51.13;;;32.83;;
3133;SDS011;1577;49.912;10.924;2023-01-15T04:44:36;49.60;;;29.53;;
3133;SDS011;1577;49.912;10.924;2023-01-15T04:47:02;58.20;;;39.57;;
3133;SDS011;1577;49.912;10.924;2023-01-15T04:49:28;49.10;;;27.53;;
3133;SDS011;1577;49.912;10.924;2023-01-15T04:51:54;51.57;;;34.13;;
3133;SDS011;1577;49.912;10.924;2023-01-15T04:54:20;49.63;;;29.27;;
3133;SDS011;1577;49.912;10.924;2023-01-15T04:56:48;50.33;;;34.03;;
3133;SDS011;1577;49.912;10.924;2023-01-15T04:59:15;52.47;;;36.53;;
3133;SDS011;1577;49.912;10.924;2023-01-15T05:01:41;51.53;;;33.67;;
3133;SDS011;1577;49.912;10.924;2023-01-15T05:04:07;50.97;;;32.00;;
3133;SDS011;1577;49.912;10.924;2023-01-15T05:06:33;49.20;;;30.17;;
3133;SDS011;1577;49.912;10.924;2023-01-15T05:09:00;50.37;;;33.37;;
3133;SDS011;1577;49.912;10.924;2023-01-15T05:11:26;51.67;;;36.83;;
3133;SDS011;1577;49.912;10.924;2023-01-15T05:13:53;51.30;;;34.77;;
3133;SDS011;1577;49.912;10.924;2023-01-15T05:16:20;51.97;;;33.83;;
3133;SDS011;1577;49.912;10.924;2023-01-15T05:18:48;49.97;;;32.43;;
3133;SDS011;1577;49.912;10.924;2023-01-15T05:23:40;49.50;;;29.93;;
3133;SDS011;1577;49.912;10.924;2023-01-15T05:26:06;48.00;;;27.70;;
3133;SDS011;1577;49.912;10.924;2023-01-15T05:28:32;49.50;;;31.10;;
3133;SDS011;1577;49.912;10.924;2023-01-15T05:30:58;51.07;;;33.47;;
3133;SDS011;1577;49.912;10.924;2023-01-15T05:33:30;46.80;;;31.53;;
3133;SDS011;1577;49.912;10.924;2023-01-15T05:35:59;42.77;;;24.50;;
3133;SDS011;1577;49.912;10.924;2023-01-15T05:38:25;37.47;;;10.17;;
3133;SDS011;1577;49.912;10.924;2023-01-15T05:40:51;37.10;;;8.97;;
3133;SDS011;1577;49.912;10.924;2023-01-15T05:43:17;37.80;;;9.33;;
3133;SDS011;1577;49.912;10.924;2023-01-15T05:45:43;39.70;;;10.43;;
3133;SDS011;1577;49.912;10.924;2023-01-15T05:48:09;39.50;;;10.07;;
3133;SDS011;1577;49.912;10.924;2023-01-15T05:50:35;42.07;;;10.30;;
3133;SDS011;1577;49.912;10.924;2023-01-15T05:53:01;40.27;;;9.60;;
3133;SDS011;1577;49.912;10.924;2023-01-15T05:55:27;40.47;;;10.30;;
3133;SDS011;1577;49.912;10.924;2023-01-15T05:57:53;42.03;;;12.30;;
3133;SDS011;1577;49.912;10.924;2023-01-15T06:00:19;42.20;;;11.57;;
3133;SDS011;1577;49.912;10.924;2023-01-15T06:02:48;41.80;;;11.53;;
3133;SDS011;1577;49.912;10.924;2023-01-15T06:05:15;43.70;;;14.77;;
3133;SDS011;1577;49.912;10.924;2023-01-15T06:07:44;42.00;;;11.40;;
3133;SDS011;1577;49.912;10.924;2023-01-15T06:10:10;43.60;;;14.27;;
3133;SDS011;1577;49.912;10.924;2023-01-15T06:12:36;44.57;;;14.77;;
3133;SDS011;1577;49.912;10.924;2023-01-15T06:15:02;44.87;;;14.13;;
3133;SDS011;1577;49.912;10.924;2023-01-15T06:17:28;47.00;;;13.90;;
3133;SDS011;1577;49.912;10.924;2023-01-15T06:19:54;45.77;;;15.77;;
3133;SDS011;1577;49.912;10.924;2023-01-15T06:22:20;44.40;;;12.17;;
3133;SDS011;1577;49.912;10.924;2023-01-15T06:24:46;45.60;;;12.43;;
3133;SDS011;1577;49.912;10.924;2023-01-15T06:27:12;45.30;;;11.07;;
3133;SDS011;1577;49.912;10.924;2023-01-15T06:29:38;44.83;;;10.63;;
3133;SDS011;1577;49.912;10.924;2023-01-15T06:32:04;46.43;;;12.47;;
3133;SDS011;1577;49.912;10.924;2023-01-15T06:34:30;46.10;;;12.17;;
3133;SDS011;1577;49.912;10.924;2023-01-15T06:36:56;45.37;;;10.07;;
3133;SDS011;1577;49.912;10.924;2023-01-15T06:39:22;48.13;;;9.83;;
3133;SDS011;1577;49.912;10.924;2023-01-15T06:41:48;44.93;;;10.90;;
3133;SDS011;1577;49.912;10.924;2023-01-15T06:44:32;44.20;;;9.97;;
3133;SDS011;1577;49.912;10.924;2023-01-15T06:47:17;45.17;;;8.97;;
3133;SDS011;1577;49.912;10.924;2023-01-15T06:49:47;45.27;;;9.63;;
3133;SDS011;1577;49.912;10.924;2023-01-15T06:52:13;46.00;;;12.00;;
3133;SDS011;1577;49.912;10.924;2023-01-15T06:54:40;44.90;;;8.30;;
3133;SDS011;1577;49.912;10.924;2023-01-15T06:57:06;45.80;;;12.20;;
3133;SDS011;1577;49.912;10.924;2023-01-15T06:59:32;45.27;;;8.97;;
3133;SDS011;1577;49.912;10.924;2023-01-15T07:01:58;45.13;;;9.00;;
3133;SDS011;1577;49.912;10.924;2023-01-15T07:04:24;46.97;;;13.10;;
3133;SDS011;1577;49.912;10.924;2023-01-15T07:06:50;44.70;;;9.23;;
3133;SDS011;1577;49.912;10.924;2023-01-15T07:09:16;45.00;;;11.23;;
3133;SDS011;1577;49.912;10.924;2023-01-15T07:11:42;45.10;;;9.50;;
3133;SDS011;1577;49.912;10.924;2023-01-15T07:14:14;46.67;;;11.60;;
3133;SDS011;1577;49.912;10.924;2023-01-15T07:16:40;46.70;;;12.80;;
3133;SDS011;1577;49.912;10.924;2023-01-15T07:19:07;47.07;;;14.27;;
3133;SDS011;1577;49.912;10.924;2023-01-15T07:21:33;45.60;;;10.40;;
3133;SDS011;1577;49.912;10.924;2023-01-15T07:24:00;46.33;;;11.60;;
3133;SDS011;1577;49.912;10.924;2023-01-15T07:26:26;47.97;;;10.93;;
3133;SDS011;1577;49.912;10.924;2023-01-15T07:28:52;45.87;;;10.53;;
3133;SDS011;1577;49.912;10.924;2023-01-15T07:31:19;46.50;;;11.40;;
3133;SDS011;1577;49.912;10.924;2023-01-15T07:33:44;49.17;;;13.00;;
3133;SDS011;1577;49.912;10.924;2023-01-15T07:36:10;47.27;;;12.60;;
3133;SDS011;1577;49.912;10.924;2023-01-15T07:38:36;45.37;;;8.40;;
3133;SDS011;1577;49.912;10.924;2023-01-15T07:41:02;46.40;;;10.63;;
3133;SDS011;1577;49.912;10.924;2023-01-15T07:43:47;46.17;;;10.83;;
3133;SDS011;1577;49.912;10.924;2023-01-15T07:46:31;46.07;;;11.27;;
3133;SDS011;1577;49.912;10.924;2023-01-15T07:49:16;47.07;;;9.77;;
3133;SDS011;1577;49.912;10.924;2023-01-15T07:52:00;45.80;;;9.63;;
3133;SDS011;1577;49.912;10.924;2023-01-15T07:54:26;47.00;;;12.53;;
3133;SDS011;1577;49.912;10.924;2023-01-15T07:56:53;47.10;;;8.00;;
3133;SDS011;1577;49.912;10.924;2023-01-15T07:59:20;48.30;;;9.80;;
3133;SDS011;1577;49.912;10.924;2023-01-15T08:01:46;48.03;;;11.03;;
3133;SDS011;1577;49.912;10.924;2023-01-15T08:04:12;48.77;;;12.93;;
3133;SDS011;1577;49.912;10.924;2023-01-15T08:06:38;48.60;;;13.07;;
3133;SDS011;1577;49.912;10.924;2023-01-15T08:09:04;47.77;;;9.87;;
3133;SDS011;1577;49.912;10.924;2023-01-15T08:11:31;47.77;;;9.80;;
3133;SDS011;1577;49.912;10.924;2023-01-15T08:14:16;47.50;;;9.10;;
3133;SDS011;1577;49.912;10.924;2023-01-15T08:17:01;46.17;;;6.20;;
3133;SDS011;1577;49.912;10.924;2023-01-15T08:19:27;46.90;;;7.37;;
3133;SDS011;1577;49.912;10.924;2023-01-15T08:21:54;48.90;;;9.67;;
3133;SDS011;1577;49.912;10.924;2023-01-15T08:24:20;50.33;;;9.73;;
3133;SDS011;1577;49.912;10.924;2023-01-15T08:26:46;48.57;;;9.50;;
3133;SDS011;1577;49.912;10.924;2023-01-15T08:29:13;48.50;;;9.30;;
3133;SDS011;1577;49.912;10.924;2023-01-15T08:31:39;48.60;;;11.23;;
3133;SDS011;1577;49.912;10.924;2023-01-15T08:34:05;50.20;;;10.73;;
3133;SDS011;1577;49.912;10.924;2023-01-15T08:36:31;48.73;;;10.80;;
3133;SDS011;1577;49.912;10.924;2023-01-15T08:38:57;48.00;;;9.40;;
3133;SDS011;1577;49.912;10.924;2023-01-15T08:41:23;47.93;;;8.63;;
3133;SDS011;1577;49.912;10.924;2023-01-15T08:43:49;51.00;;;10.90;;
3133;SDS011;1577;49.912;10.924;2023-01-15T08:46:15;49.47;;;10.10;;
3133;SDS011;1577;49.912;10.924;2023-01-15T08:48:42;49.47;;;10.93;;
3133;SDS011;1577;49.912;10.924;2023-01-15T08:51:09;49.83;;;11.60;;
3133;SDS011;1577;49.912;10.924;2023-01-15T08:53:35;49.53;;;12.37;;
3133;SDS011;1577;49.912;10.924;2023-01-15T08:56:01;50.40;;;12.07;;
3133;SDS011;1577;49.912;10.924;2023-01-15T08:58:28;53.90;;;14.47;;
3133;SDS011;1577;49.912;10.924;2023-01-15T09:00:54;58.20;;;18.53;;
3133;SDS011;1577;49.912;10.924;2023-01-15T09:03:20;50.23;;;10.23;;
3133;SDS011;1577;49.912;10.924;2023-01-15T09:05:46;49.47;;;10.87;;
3133;SDS011;1577;49.912;10.924;2023-01-15T09:08:12;51.63;;;14.17;;
3133;SDS011;1577;49.912;10.924;2023-01-15T09:10:38;50.23;;;9.77;;
3133;SDS011;1577;49.912;10.924;2023-01-15T09:13:04;51.60;;;10.90;;
3133;SDS011;1577;49.912;10.924;2023-01-15T09:15:31;53.27;;;12.90;;
3133;SDS011;1577;49.912;10.924;2023-01-15T09:17:57;51.17;;;10.80;;
3133;SDS011;1577;49.912;10.924;2023-01-15T09:20:24;51.90;;;12.60;;
3133;SDS011;1577;49.912;10.924;2023-01-15T09:22:51;52.30;;;10.70;;
3133;SDS011;1577;49.912;10.924;2023-01-15T09:25:17;51.43;;;8.63;;
3133;SDS011;1577;49.912;10.924;2023-01-15T09:27:44;52.07;;;11.27;;
3133;SDS011;1577;49.912;10.924;2023-01-15T09:30:13;52.80;;;10.93;;
3133;SDS011;1577;49.912;10.924;2023-01-15T09:32:40;52.27;;;7.87;;
3133;SDS011;1577;49.912;10.924;2023-01-15T09:35:06;53.10;;;8.77;;
3133;SDS011;1577;49.912;10.924;2023-01-15T09:37:33;52.80;;;7.87;;
3133;SDS011;1577;49.912;10.924;2023-01-15T09:39:58;53.97;;;7.87;;
3133;SDS011;1577;49.912;10.924;2023-01-15T09:48:17;53.43;;;6.50;;
3133;SDS011;1577;49.912;10.924;2023-01-15T09:50:26;53.03;;;5.73;;
3133;SDS011;1577;49.912;10.924;2023-01-15T09:56:01;54.00;;;5.90;;
3133;SDS011;1577;49.912;10.924;2023-01-15T09:58:32;54.57;;;6.60;;
3133;SDS011;1577;49.912;10.924;2023-01-15T10:00:58;54.00;;;7.20;;
3133;SDS011;1577;49.912;10.924;2023-01-15T10:08:44;53.80;;;5.90;;
3133;SDS011;1577;49.912;10.924;2023-01-15T10:16:06;55.57;;;6.80;;
3133;SDS011;1577;49.912;10.924;2023-01-15T10:18:32;60.27;;;9.20;;
3133;SDS011;1577;49.912;10.924;2023-01-15T10:26:30;54.37;;;7.10;;
3133;SDS011;1577;49.912;10.924;2023-01-15T10:28:58;56.07;;;8.07;;
3133;SDS011;1577;49.912;10.924;2023-01-15T10:31:28;54.80;;;8.20;;
3133;SDS011;1577;49.912;10.924;2023-01-15T10:34:10;53.40;;;7.20;;
3133;SDS011;1577;49.912;10.924;2023-01-15T10:36:45;56.70;;;8.30;;
3133;SDS011;1577;49.912;10.924;2023-01-15T10:39:14;54.23;;;6.87;;
3133;SDS011;1577;49.912;10.924;2023-01-15T10:46:58;57.53;;;7.33;;
3133;SDS011;1577;49.912;10.924;2023-01-15T10:49:28;71.63;;;10.47;;
3133;SDS011;1577;49.912;10.924;2023-01-15T10:54:37;65.83;;;12.17;;
3133;SDS011;1577;49.912;10.924;2023-01-15T10:57:08;72.30;;;12.47;;
3133;SDS011;1577;49.912;10.924;2023-01-15T11:02:13;56.30;;;7.57;;
3133;SDS011;1577;49.912;10.924;2023-01-15T11:04:43;54.53;;;6.33;;
3133;SDS011;1577;49.912;10.924;2023-01-15T11:07:09;54.07;;;7.47;;
3133;SDS011;1577;49.912;10.924;2023-01-15T11:09:38;54.20;;;8.07;;
3133;SDS011;1577;49.912;10.924;2023-01-15T11:14:36;56.07;;;8.00;;
3133;SDS011;1577;49.912;10.924;2023-01-15T11:17:22;55.87;;;6.27;;
3133;SDS011;1577;49.912;10.924;2023-01-15T11:20:24;54.50;;;6.57;;
3133;SDS011;1577;49.912;10.924;2023-01-15T11:22:51;55.10;;;5.40;;
3133;SDS011;1577;49.912;10.924;2023-01-15T11:25:26;56.77;;;7.07;;
3133;SDS011;1577;49.912;10.924;2023-01-15T11:27:53;55.10;;;5.77;;
3133;SDS011;1577;49.912;10.924;2023-01-15T11:30:29;54.20;;;4.80;;
3133;SDS011;1577;49.912;10.924;2023-01-15T11:32:56;56.80;;;6.97;;
3133;SDS011;1577;49.912;10.924;2023-01-15T11:35:23;58.70;;;7.90;;
3133;SDS011;1577;49.912;10.924;2023-01-15T11:37:49;63.63;;;10.90;;
3133;SDS011;1577;49.912;10.924;2023-01-15T11:42:44;61.27;;;10.97;;
3133;SDS011;1577;49.912;10.924;2023-01-15T11:45:29;55.33;;;7.90;;
3133;SDS011;1577;49.912;10.924;2023-01-15T11:48:14;56.17;;;9.10;;
3133;SDS011;1577;49.912;10.924;2023-01-15T11:51:07;57.27;;;8.67;;
3133;SDS011;1577;49.912;10.924;2023-01-15T11:53:43;56.77;;;8.40;;
3133;SDS011;1577;49.912;10.924;2023-01-15T11:56:12;56.73;;;9.77;;
3133;SDS011;1577;49.912;10.924;2023-01-15T11:58:44;58.17;;;10.57;;
3133;SDS011;1577;49.912;10.924;2023-01-15T12:01:11;57.30;;;10.23;;
3133;SDS011;1577;49.912;10.924;2023-01-15T12:03:40;56.77;;;9.67;;
3133;SDS011;1577;49.912;10.924;2023-01-15T12:06:08;57.17;;;6.77;;
3133;SDS011;1577;49.912;10.924;2023-01-15T12:13:56;58.57;;;8.80;;
3133;SDS011;1577;49.912;10.924;2023-01-15T12:18:57;58.30;;;7.93;;
3133;SDS011;1577;49.912;10.924;2023-01-15T12:29:30;56.57;;;6.67;;
3133;SDS011;1577;49.912;10.924;2023-01-15T12:32:04;58.53;;;8.20;;
3133;SDS011;1577;49.912;10.924;2023-01-15T12:34:38;61.57;;;8.70;;
3133;SDS011;1577;49.912;10.924;2023-01-15T12:37:10;62.20;;;9.93;;
3133;SDS011;1577;49.912;10.924;2023-01-15T12:39:44;60.67;;;9.53;;
3133;SDS011;1577;49.912;10.924;2023-01-15T12:42:13;61.80;;;8.63;;
3133;SDS011;1577;49.912;10.924;2023-01-15T12:45:15;62.60;;;8.83;;
3133;SDS011;1577;49.912;10.924;2023-01-15T12:47:44;57.80;;;6.33;;
3133;SDS011;1577;49.912;10.924;2023-01-15T12:52:42;56.70;;;7.20;;
3133;SDS011;1577;49.912;10.924;2023-01-15T12:55:20;56.97;;;7.67;;
3133;SDS011;1577;49.912;10.924;2023-01-15T12:57:52;57.20;;;8.03;;
3133;SDS011;1577;49.912;10.924;2023-01-15T13:00:33;56.97;;;8.20;;
3133;SDS011;1577;49.912;10.924;2023-01-15T13:05:50;57.07;;;8.60;;
3133;SDS011;1577;49.912;10.924;2023-01-15T13:08:20;57.50;;;8.27;;
3133;SDS011;1577;49.912;10.924;2023-01-15T13:10:48;56.67;;;6.93;;
3133;SDS011;1577;49.912;10.924;2023-01-15T13:13:15;58.70;;;8.90;;
3133;SDS011;1577;49.912;10.924;2023-01-15T13:15:44;57.70;;;10.07;;
3133;SDS011;1577;49.912;10.924;2023-01-15T13:20:50;75.30;;;16.83;;
3133;SDS011;1577;49.912;10.924;2023-01-15T13:33:32;60.43;;;11.20;;
3133;SDS011;1577;49.912;10.924;2023-01-15T13:36:12;61.27;;;11.53;;
3133;SDS011;1577;49.912;10.924;2023-01-15T13:38:42;64.03;;;12.27;;
3133;SDS011;1577;49.912;10.924;2023-01-15T13:41:08;60.50;;;10.67;;
3133;SDS011;1577;49.912;10.924;2023-01-15T13:43:36;63.73;;;11.57;;
3133;SDS011;1577;49.912;10.924;2023-01-15T13:46:04;60.20;;;11.40;;
3133;SDS011;1577;49.912;10.924;2023-01-15T13:48:32;61.17;;;12.00;;
3133;SDS011;1577;49.912;10.924;2023-01-15T13:50:59;60.87;;;11.27;;
3133;SDS011;1577;49.912;10.924;2023-01-15T13:55:52;59.77;;;9.00;;
3133;SDS011;1577;49.912;10.924;2023-01-15T13:58:21;57.63;;;5.90;;
3133;SDS011;1577;49.912;10.924;2023-01-15T14:00:59;71.97;;;8.73;;
3133;SDS011;1577;49.912;10.924;2023-01-15T14:03:26;63.10;;;10.20;;
3133;SDS011;1577;49.912;10.924;2023-01-15T14:05:53;61.53;;;9.90;;
3133;SDS011;1577;49.912;10.924;2023-01-15T14:08:22;60.13;;;10.43;;
3133;SDS011;1577;49.912;10.924;2023-01-15T14:10:49;66.27;;;13.17;;
3133;SDS011;1577;49.912;10.924;2023-01-15T14:20:58;64.77;;;13.73;;
3133;SDS011;1577;49.912;10.924;2023-01-15T14:23:36;57.53;;;8.13;;
3133;SDS011;1577;49.912;10.924;2023-01-15T14:31:35;56.57;;;7.10;;
3133;SDS011;1577;49.912;10.924;2023-01-15T14:36:33;57.50;;;8.97;;
3133;SDS011;1577;49.912;10.924;2023-01-15T14:39:20;60.17;;;11.47;;
3133;SDS011;1577;49.912;10.924;2023-01-15T14:41:47;60.43;;;11.53;;
3133;SDS011;1577;49.912;10.924;2023-01-15T14:44:38;60.67;;;12.63;;
3133;SDS011;1577;49.912;10.924;2023-01-15T14:47:10;59.23;;;9.13;;
3133;SDS011;1577;49.912;10.924;2023-01-15T14:49:43;59.43;;;10.37;;
3133;SDS011;1577;49.912;10.924;2023-01-15T14:52:15;62.10;;;10.57;;
3133;SDS011;1577;49.912;10.924;2023-01-15T14:54:46;62.60;;;12.77;;
3133;SDS011;1577;49.912;10.924;2023-01-15T14:57:12;59.80;;;9.57;;
3133;SDS011;1577;49.912;10.924;2023-01-15T14:59:52;62.97;;;13.20;;
3133;SDS011;1577;49.912;10.924;2023-01-15T15:02:27;57.77;;;8.17;;
3133;SDS011;1577;49.912;10.924;2023-01-15T15:04:57;62.47;;;13.40;;
3133;SDS011;1577;49.912;10.924;2023-01-15T15:07:24;63.03;;;11.27;;
3133;SDS011;1577;49.912;10.924;2023-01-15T15:09:54;60.80;;;11.87;;
3133;SDS011;1577;49.912;10.924;2023-01-15T15:15:10;62.30;;;10.63;;
3133;SDS011;1577;49.912;10.924;2023-01-15T15:20:14;60.93;;;8.00;;
3133;SDS011;1577;49.912;10.924;2023-01-15T15:22:42;63.17;;;8.23;;
3133;SDS011;1577;49.912;10.924;2023-01-15T15:25:09;59.93;;;8.20;;
3133;SDS011;1577;49.912;10.924;2023-01-15T15:27:37;58.40;;;6.80;;
3133;SDS011;1577;49.912;10.924;2023-01-15T15:30:04;61.33;;;8.67;;
3133;SDS011;1577;49.912;10.924;2023-01-15T15:32:30;60.53;;;10.17;;
3133;SDS011;1577;49.912;10.924;2023-01-15T15:35:04;58.43;;;6.67;;
3133;SDS011;1577;49.912;10.924;2023-01-15T15:37:30;59.40;;;8.17;;
3133;SDS011;1577;49.912;10.924;2023-01-15T15:40:18;58.73;;;9.57;;
3133;SDS011;1577;49.912;10.924;2023-01-15T15:42:56;58.07;;;6.70;;
3133;SDS011;1577;49.912;10.924;2023-01-15T15:45:49;57.67;;;6.20;;
3133;SDS011;1577;49.912;10.924;2023-01-15T15:48:34;57.27;;;6.23;;
3133;SDS011;1577;49.912;10.924;2023-01-15T15:51:22;57.40;;;5.80;;
3133;SDS011;1577;49.912;10.924;2023-01-15T15:53:49;59.40;;;6.50;;
3133;SDS011;1577;49.912;10.924;2023-01-15T15:56:15;59.90;;;6.50;;
3133;SDS011;1577;49.912;10.924;2023-01-15T15:58:42;60.27;;;7.00;;
3133;SDS011;1577;49.912;10.924;2023-01-15T16:01:11;58.30;;;7.27;;
3133;SDS011;1577;49.912;10.924;2023-01-15T16:03:44;57.97;;;6.10;;
3133;SDS011;1577;49.912;10.924;2023-01-15T16:06:21;58.70;;;6.43;;
3133;SDS011;1577;49.912;10.924;2023-01-15T16:08:51;58.10;;;6.40;;
3133;SDS011;1577;49.912;10.924;2023-01-15T16:11:17;63.07;;;7.80;;
3133;SDS011;1577;49.912;10.924;2023-01-15T16:13:46;61.55;;;4.72;;
3133;SDS011;1577;49.912;10.924;2023-01-15T16:16:13;66.45;;;7.13;;
3133;SDS011;1577;49.912;10.924;2023-01-15T16:18:50;63.38;;;7.45;;
3133;SDS011;1577;49.912;10.924;2023-01-15T16:21:22;63.38;;;6.47;;
3133;SDS011;1577;49.912;10.924;2023-01-15T16:23:56;57.37;;;4.00;;
3133;SDS011;1577;49.912;10.924;2023-01-15T16:26:22;60.40;;;5.00;;
3133;SDS011;1577;49.912;10.924;2023-01-15T16:28:54;59.87;;;4.80;;
3133;SDS011;1577;49.912;10.924;2023-01-15T16:31:20;58.07;;;4.37;;
3133;SDS011;1577;49.912;10.924;2023-01-15T16:33:52;57.73;;;3.83;;
3133;SDS011;1577;49.912;10.924;2023-01-15T16:36:18;57.77;;;3.80;;
3133;SDS011;1577;49.912;10.924;2023-01-15T16:38:46;58.60;;;4.73;;
3133;SDS011;1577;49.912;10.924;2023-01-15T16:41:17;62.33;;;4.20;;
3133;SDS011;1577;49.912;10.924;2023-01-15T16:43:54;59.47;;;5.07;;
3133;SDS011;1577;49.912;10.924;2023-01-15T16:46:20;58.37;;;4.53;;
3133;SDS011;1577;49.912;10.924;2023-01-15T16:48:47;59.97;;;4.50;;
3133;SDS011;1577;49.912;10.924;2023-01-15T16:53:51;58.97;;;4.07;;
3133;SDS011;1577;49.912;10.924;2023-01-15T16:59:17;59.77;;;5.40;;
3133;SDS011;1577;49.912;10.924;2023-01-15T17:01:43;59.63;;;5.57;;
3133;SDS011;1577;49.912;10.924;2023-01-15T17:04:44;58.47;;;4.53;;